Portada
METAR-TAF:

METAR-TAF

Aeroports :

Suceava, Romania

latitud: 47-39N, longitud: 026-15E, altitud: 351 m

Observació

L'informe es va fer fa 42 minuts, a les 14:00 UTC
Vent 9 kt del Nord/Nord-Est
Temperatura 22°C
Humitat 78%
Pressió 1018 hPa
Visibilitat: 6000 m
Núvols disperses a una alçada de 4300 ft, Cumulonimbus.
tempesta, pluja

METAR: LRSV 181400Z 03009KT 6000 TSRA SCT043CB 22/18 Q1018

Hora: 17:42 (14:42 UTC)

Pronòstic

L'informe es va fer fa 42 minuts, a les 14:00 UTC
Pronòstic vàlid del 18 a les 15 UTC al 19 a les 00 UTC
Vent 8 kt del Nord/Nord-Est
Visibilitat 10 km o més
sense núvols per sota de 1500 mi sense presència de cumulonimbus.
Temporalment
l' 18 a les 15 UTC al 18 a les 18 UTC
Vent 15 kt amb direcció variable amb ràfegues de 25 kt
Visibilitat: 3000 m
Cel ennuvolat a una alçada de 3000 ft, Cumulonimbus.
tempesta, pluja

TAF: LRSV 181400Z 1815/1900 03008KT CAVOK TEMPO 1815/1818 VRB15G25KT 3000 TSRA BKN030CB

Observacions i pronòstics meteorològics de més de 4000 aeroports (METAR i TAF).

Les estacions disponibles són els punts grocs i vermells al mapa.

Posi el ratolí al punt desitjat per veure el nom de l'estació.

Feu clic per veure les observacions i els pronòstics meteorològics.

Per canviar el mapa: feu clic els botons verds amb una creu de color negre per apropar; al botó verd amb un guió per allunyar la imatge; o en les fletxes verdes per a mapes adjacents.


METAR-TAF: